Time;durP1;ratioP1;P1;durP2;ratioP2;P2;SDS_P1;SDS_P2;PMS_P1;PMS_P2;Temp;Humidity;BMP_temperature;BMP_pressure;BME280_temperature;BME280_humidity;BME280_pressure;Samples;Min_cycle;Max_cycle;Signal;HPM_P1;HPM_P2
2022/06/18 00:00:58;;;;;;;;;;;32.00;36.10;;;;;;5075645;28;937;-32
2022/06/18 00:03:27;;;;;;;;;;;32.00;36.00;;;;;;5075763;28;1784;-35
2022/06/18 00:05:57;;;;;;;;;;;32.00;36.10;;;;;;5075788;28;940;-33
2022/06/18 00:08:25;;;;;;;;;;;32.00;36.00;;;;;;5075727;28;1015;-34
2022/06/18 00:10:55;;;;;;;;;;;32.00;36.00;;;;;;5075546;28;961;-33
2022/06/18 00:13:42;;;;;;;;;;;32.10;36.20;;;;;;5075481;28;1910;-33
2022/06/18 00:16:11;;;;;;;;;;;32.10;35.90;;;;;;5075530;28;1007;-33
2022/06/18 00:18:39;;;;;;;;;;;32.10;35.80;;;;;;5075293;28;1020;-33
2022/06/18 00:21:06;;;;;;;;;;;32.10;35.90;;;;;;5075636;28;945;-33
2022/06/18 00:23:33;;;;;;;;;;;32.10;35.90;;;;;;5074916;28;973;-33
2022/06/18 00:26:00;;;;;;;;;;;32.10;35.90;;;;;;5074817;28;968;-33
2022/06/18 00:28:28;;;;;;;;;;;32.10;35.80;;;;;;5076379;28;1033;-33
2022/06/18 00:30:55;;;;;;;;;;;32.20;35.80;;;;;;5075783;28;971;-35
2022/06/18 00:33:23;;;;;;;;;;;32.20;35.70;;;;;;5075215;28;1971;-33
2022/06/18 00:35:53;;;;;;;;;;;32.20;35.70;;;;;;5074990;28;979;-32
2022/06/18 00:38:23;;;;;;;;;;;32.30;35.70;;;;;;5076237;28;947;-33
2022/06/18 00:40:50;;;;;;;;;;;32.30;35.60;;;;;;5075447;28;1041;-32
2022/06/18 00:43:18;;;;;;;;;;;32.30;35.60;;;;;;5075552;28;1009;-33
2022/06/18 00:45:45;;;;;;;;;;;32.30;36.70;;;;;;5075948;28;1081;-33
2022/06/18 00:48:17;;;;;;;;;;;32.30;35.70;;;;;;5075374;28;866;-33
2022/06/18 00:50:45;;;;;;;;;;;32.30;35.60;;;;;;5075821;28;985;-35
2022/06/18 00:53:16;;;;;;;;;;;32.30;35.60;;;;;;5074946;28;1981;-33
2022/06/18 00:55:44;;;;;;;;;;;32.30;35.70;;;;;;5075118;28;1031;-33
2022/06/18 00:58:13;;;;;;;;;;;32.30;35.40;;;;;;5074114;28;1020;-33
2022/06/18 01:00:41;;;;;;;;;;;32.30;35.60;;;;;;5074854;28;1001;-33
2022/06/18 01:03:22;;;;;;;;;;;32.30;35.60;;;;;;5075438;28;1008;-33
2022/06/18 01:05:48;;;;;;;;;;;32.30;35.60;;;;;;5076507;28;992;-33
2022/06/18 01:08:18;;;;;;;;;;;32.30;35.60;;;;;;5076012;28;933;-33
2022/06/18 01:10:46;;;;;;;;;;;32.30;35.60;;;;;;5075217;28;984;-33
2022/06/18 01:13:16;;;;;;;;;;;32.30;35.60;;;;;;5075515;28;1983;-33
2022/06/18 01:15:43;;;;;;;;;;;32.30;35.60;;;;;;5077367;28;965;-33
2022/06/18 01:18:10;;;;;;;;;;;32.30;35.60;;;;;;5076572;28;1035;-33
2022/06/18 01:20:39;;;;;;;;;;;32.30;35.60;;;;;;5076957;28;920;-33
2022/06/18 01:23:08;;;;;;;;;;;32.30;35.60;;;;;;5077252;28;1126;-35
2022/06/18 01:25:36;;;;;;;;;;;32.30;35.60;;;;;;5075535;28;1043;-35
2022/06/18 01:28:03;;;;;;;;;;;32.20;35.60;;;;;;5076368;28;973;-34
2022/06/18 01:30:32;;;;;;;;;;;32.20;35.60;;;;;;5076095;28;1048;-34
2022/06/18 01:32:58;;;;;;;;;;;32.20;35.50;;;;;;5075892;28;1901;-34
2022/06/18 01:35:25;;;;;;;;;;;32.20;35.50;;;;;;5076318;28;994;-34
2022/06/18 01:37:52;;;;;;;;;;;32.30;35.60;;;;;;5075754;28;957;-34
2022/06/18 01:40:23;;;;;;;;;;;32.20;35.40;;;;;;5076039;28;949;-34
2022/06/18 01:42:52;;;;;;;;;;;32.20;35.60;;;;;;5076044;28;1004;-34
2022/06/18 01:45:21;;;;;;;;;;;32.30;35.60;;;;;;5076152;28;1006;-34
2022/06/18 01:47:50;;;;;;;;;;;32.20;35.50;;;;;;5076419;28;973;-35
2022/06/18 01:50:19;;;;;;;;;;;32.20;35.60;;;;;;5075776;28;1004;-34
2022/06/18 01:52:47;;;;;;;;;;;32.20;35.50;;;;;;5075597;28;1906;-34
2022/06/18 01:55:17;;;;;;;;;;;32.20;35.60;;;;;;5076548;28;1008;-34
2022/06/18 01:57:46;;;;;;;;;;;32.20;35.60;;;;;;5076534;28;941;-35
2022/06/18 02:00:18;;;;;;;;;;;32.20;35.60;;;;;;5076767;28;1012;-34
2022/06/18 02:02:46;;;;;;;;;;;32.20;35.60;;;;;;5077418;28;1013;-36
2022/06/18 02:08:16;;;;;;;;;;;32.20;35.60;;;;;;5076490;28;602;-36
2022/06/18 02:10:47;;;;;;;;;;;32.20;35.50;;;;;;5078350;28;1029;-36
2022/06/18 02:13:14;;;;;;;;;;;32.20;35.50;;;;;;5078958;28;1901;-36
2022/06/18 02:15:44;;;;;;;;;;;32.20;35.50;;;;;;5079064;28;985;-36
2022/06/18 02:18:12;;;;;;;;;;;32.20;35.60;;;;;;5079466;28;1028;-36
2022/06/18 02:20:43;;;;;;;;;;;32.20;35.60;;;;;;5078834;28;1008;-35
2022/06/18 02:23:10;;;;;;;;;;;32.20;35.60;;;;;;5078607;28;985;-37
2022/06/18 02:25:37;;;;;;;;;;;32.20;35.60;;;;;;5078647;28;996;-36
2022/06/18 02:28:11;;;;;;;;;;;32.20;36.60;;;;;;5078915;28;985;-37
2022/06/18 02:30:38;;;;;;;;;;;32.20;35.40;;;;;;5079393;28;1024;-35
2022/06/18 02:33:12;;;;;;;;;;;32.20;35.40;;;;;;5078434;28;1975;-36
2022/06/18 02:35:39;;;;;;;;;;;32.20;35.40;;;;;;5079548;28;1019;-36
2022/06/18 02:38:11;;;;;;;;;;;32.20;35.40;;;;;;5079410;28;933;-36
2022/06/18 02:40:38;;;;;;;;;;;32.20;35.40;;;;;;5078193;28;965;-44
2022/06/18 02:43:05;;;;;;;;;;;32.20;35.50;;;;;;5078635;28;1012;-36
2022/06/18 02:45:32;;;;;;;;;;;32.20;35.50;;;;;;5078729;28;972;-35
2022/06/18 02:48:00;;;;;;;;;;;32.20;35.40;;;;;;5078829;28;940;-33
2022/06/18 02:50:30;;;;;;;;;;;32.20;35.50;;;;;;5078515;28;956;-33
2022/06/18 02:53:00;;;;;;;;;;;32.20;35.50;;;;;;5078454;28;1906;-33
2022/06/18 02:55:29;;;;;;;;;;;32.20;35.50;;;;;;5077465;28;997;-33
2022/06/18 02:57:57;;;;;;;;;;;32.20;35.50;;;;;;5077685;28;1005;-33
2022/06/18 03:00:24;;;;;;;;;;;32.20;35.60;;;;;;5077699;28;1003;-35
2022/06/18 03:02:51;;;;;;;;;;;32.20;35.60;;;;;;5077353;28;1017;-36
2022/06/18 03:05:19;;;;;;;;;;;32.10;35.50;;;;;;5078368;28;1036;-35
2022/06/18 03:07:47;;;;;;;;;;;32.10;35.60;;;;;;5077931;28;1012;-34
2022/06/18 03:12:59;;;;;;;;;;;32.10;35.70;;;;;;5077374;28;1982;-34
2022/06/18 03:15:26;;;;;;;;;;;32.00;35.70;;;;;;5077524;28;990;-35
2022/06/18 03:17:53;;;;;;;;;;;32.00;35.70;;;;;;5078143;28;945;-34
2022/06/18 03:20:20;;;;;;;;;;;32.00;35.80;;;;;;5077135;28;1004;-36
2022/06/18 03:22:50;;;;;;;;;;;32.00;35.80;;;;;;5077081;28;961;-34
2022/06/18 03:25:16;;;;;;;;;;;31.90;35.70;;;;;;5077337;28;1022;-34
2022/06/18 03:27:43;;;;;;;;;;;31.90;35.80;;;;;;5077167;28;916;-34
2022/06/18 03:30:11;;;;;;;;;;;31.90;35.90;;;;;;5077004;28;873;-33
2022/06/18 03:32:38;;;;;;;;;;;31.90;35.90;;;;;;5076118;28;1979;-33
2022/06/18 03:35:06;;;;;;;;;;;31.80;35.90;;;;;;5077184;28;984;-35
2022/06/18 03:37:33;;;;;;;;;;;31.80;35.90;;;;;;5076809;28;963;-34
2022/06/18 03:40:01;;;;;;;;;;;31.80;36.10;;;;;;5076691;28;977;-34
2022/06/18 03:42:28;;;;;;;;;;;31.70;36.20;;;;;;5076718;28;1000;-33
2022/06/18 03:44:55;;;;;;;;;;;31.70;36.00;;;;;;5076177;28;1008;-33
2022/06/18 03:47:23;;;;;;;;;;;31.70;36.10;;;;;;5076096;28;949;-33
2022/06/18 03:49:49;;;;;;;;;;;31.70;37.30;;;;;;5076795;28;1449;-33
2022/06/18 03:52:16;;;;;;;;;;;31.60;36.20;;;;;;5076446;28;1985;-33
2022/06/18 03:54:43;;;;;;;;;;;31.60;36.20;;;;;;5076315;28;983;-33
2022/06/18 03:57:15;;;;;;;;;;;31.60;36.30;;;;;;5076420;28;941;-33
2022/06/18 03:59:42;;;;;;;;;;;31.60;36.30;;;;;;5076565;28;921;-33
2022/06/18 04:02:09;;;;;;;;;;;31.60;36.30;;;;;;5076186;28;969;-34
2022/06/18 04:04:36;;;;;;;;;;;31.60;36.40;;;;;;5077534;28;1027;-34
2022/06/18 04:07:03;;;;;;;;;;;31.50;36.30;;;;;;5076974;28;1005;-33
2022/06/18 04:09:30;;;;;;;;;;;31.50;36.40;;;;;;5077345;28;1012;-36
2022/06/18 04:11:56;;;;;;;;;;;31.50;36.40;;;;;;5077255;28;993;-33
2022/06/18 04:14:24;;;;;;;;;;;31.50;36.30;;;;;;5075318;28;1984;-35
2022/06/18 04:16:51;;;;;;;;;;;31.50;36.40;;;;;;5075543;28;989;-34
2022/06/18 04:19:18;;;;;;;;;;;31.50;36.40;;;;;;5075952;28;1003;-33
2022/06/18 04:21:45;;;;;;;;;;;31.40;36.40;;;;;;5075813;28;986;-34
2022/06/18 04:24:11;;;;;;;;;;;31.40;36.50;;;;;;5075999;28;1028;-33
2022/06/18 04:26:38;;;;;;;;;;;31.40;36.60;;;;;;5075844;28;1114;-33
2022/06/18 04:29:05;;;;;;;;;;;31.30;36.60;;;;;;5076182;28;909;-33
2022/06/18 04:31:33;;;;;;;;;;;31.30;36.60;;;;;;5075849;28;1012;-34
2022/06/18 04:33:59;;;;;;;;;;;31.30;36.70;;;;;;5074697;28;1906;-33
2022/06/18 04:36:31;;;;;;;;;;;31.30;36.80;;;;;;5075225;28;1000;-33
2022/06/18 04:38:58;;;;;;;;;;;31.20;36.70;;;;;;5076264;28;1044;-33
2022/06/18 04:41:25;;;;;;;;;;;31.20;36.80;;;;;;5075229;28;996;-33
2022/06/18 04:43:51;;;;;;;;;;;31.20;36.90;;;;;;5075325;28;985;-33
2022/06/18 04:46:18;;;;;;;;;;;31.20;37.00;;;;;;5075867;28;1031;-33
2022/06/18 04:48:47;;;;;;;;;;;31.10;37.00;;;;;;5075164;28;1020;-33
2022/06/18 04:51:13;;;;;;;;;;;31.10;37.00;;;;;;5075254;28;1024;-33
2022/06/18 04:53:40;;;;;;;;;;;31.10;37.00;;;;;;5075207;28;2003;-33
2022/06/18 04:56:07;;;;;;;;;;;31.10;37.10;;;;;;5075263;28;1013;-33
2022/06/18 04:58:34;;;;;;;;;;;31.10;37.10;;;;;;5074925;28;997;-33
2022/06/18 05:01:00;;;;;;;;;;;31.10;37.10;;;;;;5075773;28;953;-33
2022/06/18 05:03:27;;;;;;;;;;;31.10;37.20;;;;;;5075319;28;912;-33
2022/06/18 05:05:56;;;;;;;;;;;31.00;37.50;;;;;;5075126;28;986;-33
2022/06/18 05:08:23;;;;;;;;;;;31.00;37.50;;;;;;5075334;28;1001;-34
2022/06/18 05:10:50;;;;;;;;;;;31.00;37.40;;;;;;5074613;28;1007;-33
2022/06/18 05:13:16;;;;;;;;;;;31.00;37.50;;;;;;5074507;28;1911;-34
2022/06/18 05:15:43;;;;;;;;;;;31.00;37.60;;;;;;5074862;28;1048;-34
2022/06/18 05:18:12;;;;;;;;;;;31.00;37.90;;;;;;5075278;28;912;-34
2022/06/18 05:20:39;;;;;;;;;;;30.90;37.70;;;;;;5075151;28;1031;-34
2022/06/18 05:23:10;;;;;;;;;;;30.90;37.80;;;;;;5074975;28;973;-35
2022/06/18 05:25:36;;;;;;;;;;;30.90;37.80;;;;;;5074301;28;1014;-34
2022/06/18 05:28:03;;;;;;;;;;;30.90;37.80;;;;;;5074562;28;924;-33
2022/06/18 05:30:30;;;;;;;;;;;30.90;37.90;;;;;;5074635;28;996;-33
2022/06/18 05:32:57;;;;;;;;;;;30.90;38.00;;;;;;5074453;28;1905;-39
2022/06/18 05:35:24;;;;;;;;;;;30.90;37.90;;;;;;5074973;28;1168;-38
2022/06/18 05:37:51;;;;;;;;;;;30.90;38.00;;;;;;5075132;28;878;-38
2022/06/18 05:40:20;;;;;;;;;;;30.90;38.00;;;;;;5074841;28;1032;-37
2022/06/18 05:42:47;;;;;;;;;;;30.90;38.00;;;;;;5074677;28;989;-37
2022/06/18 05:45:14;;;;;;;;;;;30.90;38.10;;;;;;5077144;28;1003;-36
2022/06/18 05:47:40;;;;;;;;;;;30.80;38.20;;;;;;5078233;28;996;-37
2022/06/18 05:50:09;;;;;;;;;;;30.80;38.00;;;;;;5078100;28;1124;-33
2022/06/18 05:52:36;;;;;;;;;;;30.80;38.10;;;;;;5077798;28;936;-33
2022/06/18 05:55:04;;;;;;;;;;;30.80;38.10;;;;;;5078344;28;1984;-33
2022/06/18 05:57:32;;;;;;;;;;;30.80;38.10;;;;;;5078322;28;956;-34
2022/06/18 05:59:58;;;;;;;;;;;30.80;38.20;;;;;;5078312;28;1019;-33
2022/06/18 06:02:25;;;;;;;;;;;30.80;38.20;;;;;;5078158;28;968;-33
2022/06/18 06:04:52;;;;;;;;;;;30.80;38.20;;;;;;5078000;28;933;-33
2022/06/18 06:07:20;;;;;;;;;;;30.70;38.10;;;;;;5079135;28;993;-33
2022/06/18 06:12:32;;;;;;;;;;;30.80;38.30;;;;;;5078203;28;912;-35
2022/06/18 06:15:00;;;;;;;;;;;30.70;38.80;;;;;;5077398;28;1906;-35
2022/06/18 06:17:27;;;;;;;;;;;30.70;38.80;;;;;;5077432;28;1035;-35
2022/06/18 06:20:00;;;;;;;;;;;30.60;38.70;;;;;;5076743;28;1431;-35
2022/06/18 06:22:27;;;;;;;;;;;30.60;38.80;;;;;;5077985;28;977;-35
2022/06/18 06:24:54;;;;;;;;;;;30.60;38.90;;;;;;5077538;28;1028;-35
2022/06/18 06:27:21;;;;;;;;;;;30.60;38.90;;;;;;5076914;28;937;-36
2022/06/18 06:29:49;;;;;;;;;;;30.60;38.70;;;;;;5077599;28;937;-41
2022/06/18 06:32:15;;;;;;;;;;;30.60;39.30;;;;;;5077373;28;1403;-43
2022/06/18 06:34:42;;;;;;;;;;;30.60;38.80;;;;;;5077369;28;1898;-42
2022/06/18 06:37:10;;;;;;;;;;;30.60;38.90;;;;;;5076923;28;949;-43
2022/06/18 06:39:37;;;;;;;;;;;30.60;38.90;;;;;;5076869;28;971;-40
2022/06/18 06:42:04;;;;;;;;;;;30.70;39.00;;;;;;5077385;28;949;-42
2022/06/18 06:44:31;;;;;;;;;;;30.70;39.00;;;;;;5076962;28;980;-42
2022/06/18 06:46:59;;;;;;;;;;;30.70;39.10;;;;;;5076949;28;984;-42
2022/06/18 06:49:26;;;;;;;;;;;30.70;39.20;;;;;;5076877;28;1024;-41
2022/06/18 06:51:53;;;;;;;;;;;30.70;39.30;;;;;;5076581;28;985;-39
2022/06/18 06:54:20;;;;;;;;;;;30.70;39.40;;;;;;5076002;28;1983;-40
2022/06/18 06:59:31;;;;;;;;;;;30.70;39.50;;;;;;5076378;28;1006;-37
2022/06/18 07:02:02;;;;;;;;;;;30.70;39.40;;;;;;5076200;28;944;-37
2022/06/18 07:04:29;;;;;;;;;;;30.80;39.50;;;;;;5075212;28;1012;-37
2022/06/18 07:06:57;;;;;;;;;;;30.80;41.30;;;;;;5075496;28;1008;-39
2022/06/18 07:09:24;;;;;;;;;;;30.60;40.00;;;;;;5076064;28;936;-37
2022/06/18 07:11:51;;;;;;;;;;;30.60;40.10;;;;;;5076185;28;971;-37
2022/06/18 07:14:18;;;;;;;;;;;30.50;40.10;;;;;;5076322;28;1907;-37
2022/06/18 07:16:48;;;;;;;;;;;30.50;40.30;;;;;;5075390;28;933;-38
2022/06/18 07:19:16;;;;;;;;;;;30.50;40.40;;;;;;5075937;28;953;-37
2022/06/18 07:21:43;;;;;;;;;;;30.40;40.40;;;;;;5075388;28;1008;-39
2022/06/18 07:24:10;;;;;;;;;;;30.40;40.40;;;;;;5075325;28;1028;-40
2022/06/18 07:26:37;;;;;;;;;;;30.40;40.40;;;;;;5076532;28;1035;-41
2022/06/18 07:29:04;;;;;;;;;;;30.40;40.60;;;;;;5075889;28;937;-40
2022/06/18 07:31:32;;;;;;;;;;;30.40;40.60;;;;;;5075863;28;988;-38
2022/06/18 07:33:59;;;;;;;;;;;30.40;40.60;;;;;;5075699;28;1980;-41
2022/06/18 07:36:27;;;;;;;;;;;30.40;40.60;;;;;;5073188;28;1020;-37
2022/06/18 07:38:54;;;;;;;;;;;30.40;40.40;;;;;;5075580;28;993;-39
2022/06/18 07:41:22;;;;;;;;;;;30.40;40.40;;;;;;5076696;28;987;-37
2022/06/18 07:43:49;;;;;;;;;;;30.40;40.40;;;;;;5076789;28;997;-42
2022/06/18 07:46:17;;;;;;;;;;;30.40;41.60;;;;;;5076172;28;981;-39
2022/06/18 07:48:44;;;;;;;;;;;30.40;40.30;;;;;;5075875;28;1035;-37
2022/06/18 07:51:11;;;;;;;;;;;30.40;40.40;;;;;;5077253;28;930;-39
2022/06/18 07:53:40;;;;;;;;;;;30.40;40.30;;;;;;5077385;28;1901;-41
2022/06/18 07:56:07;;;;;;;;;;;30.30;40.20;;;;;;5077049;28;1046;-37
2022/06/18 07:58:34;;;;;;;;;;;30.40;40.10;;;;;;5077181;28;873;-38
2022/06/18 08:01:02;;;;;;;;;;;30.30;40.00;;;;;;5077097;28;1013;-39
2022/06/18 08:03:28;;;;;;;;;;;30.30;40.00;;;;;;5076988;28;956;-37
2022/06/18 08:05:55;;;;;;;;;;;30.40;40.00;;;;;;5076626;28;949;-38
2022/06/18 08:08:22;;;;;;;;;;;30.40;40.00;;;;;;5076037;28;945;-38
2022/06/18 08:10:51;;;;;;;;;;;30.40;39.90;;;;;;5075647;28;953;-38
2022/06/18 08:13:18;;;;;;;;;;;30.40;39.90;;;;;;5075959;28;1428;-39
2022/06/18 08:15:45;;;;;;;;;;;30.40;39.80;;;;;;5074981;28;1906;-38
2022/06/18 08:18:12;;;;;;;;;;;30.40;39.80;;;;;;5074579;28;1008;-38
2022/06/18 08:20:39;;;;;;;;;;;30.40;39.80;;;;;;5075016;28;1004;-38
2022/06/18 08:23:06;;;;;;;;;;;30.40;39.80;;;;;;5084075;28;1373;-39
2022/06/18 08:25:33;;;;;;;;;;;30.40;39.90;;;;;;5094117;28;989;-37
2022/06/18 08:28:03;;;;;;;;;;;30.40;39.90;;;;;;5093567;28;983;-38
2022/06/18 08:30:30;;;;;;;;;;;30.40;39.80;;;;;;5093717;28;1007;-37
2022/06/18 08:32:57;;;;;;;;;;;30.40;39.90;;;;;;5093690;28;1031;-41
2022/06/18 08:35:24;;;;;;;;;;;30.40;39.90;;;;;;5093564;28;1906;-38
2022/06/18 08:37:51;;;;;;;;;;;30.40;39.90;;;;;;5093234;28;1008;-39
2022/06/18 08:40:35;;;;;;;;;;;30.40;39.90;;;;;;5093639;28;1131;-39
2022/06/18 08:43:07;;;;;;;;;;;30.40;39.90;;;;;;5093841;28;1113;-41
2022/06/18 08:45:38;;;;;;;;;;;30.40;39.90;;;;;;5093323;28;1050;-42
2022/06/18 08:48:09;;;;;;;;;;;30.40;40.00;;;;;;5093737;28;1040;-39
2022/06/18 08:50:42;;;;;;;;;;;30.40;39.90;;;;;;5092916;28;935;-39
2022/06/18 08:53:13;;;;;;;;;;;30.40;39.90;;;;;;5093822;28;932;-37
2022/06/18 08:55:45;;;;;;;;;;;30.40;39.90;;;;;;5092595;28;1989;-39
2022/06/18 08:58:17;;;;;;;;;;;30.50;39.90;;;;;;5093714;28;988;-37
2022/06/18 09:00:46;;;;;;;;;;;30.50;39.90;;;;;;5094074;28;1010;-39
2022/06/18 09:03:20;;;;;;;;;;;30.40;39.90;;;;;;5093586;28;1003;-39
2022/06/18 09:05:54;;;;;;;;;;;30.50;39.90;;;;;;5094195;28;1130;-37
2022/06/18 09:08:29;;;;;;;;;;;30.50;39.90;;;;;;5092325;28;994;-38
2022/06/18 09:11:08;;;;;;;;;;;30.50;39.90;;;;;;5093539;28;953;-38
2022/06/18 09:13:38;;;;;;;;;;;30.50;40.00;;;;;;5093725;28;1001;-38
2022/06/18 09:16:10;;;;;;;;;;;30.50;40.00;;;;;;5093150;28;1909;-38
2022/06/18 09:18:39;;;;;;;;;;;30.50;39.90;;;;;;5095068;28;916;-39
2022/06/18 09:21:08;;;;;;;;;;;30.50;39.90;;;;;;5097461;28;1006;-39
2022/06/18 09:23:37;;;;;;;;;;;30.50;39.90;;;;;;5097813;28;991;-38
2022/06/18 09:26:07;;;;;;;;;;;30.50;39.90;;;;;;5097175;28;877;-38
2022/06/18 09:28:36;;;;;;;;;;;30.50;39.90;;;;;;5097792;28;923;-39
2022/06/18 09:31:06;;;;;;;;;;;30.50;39.90;;;;;;5097425;28;1533;-39
2022/06/18 09:33:37;;;;;;;;;;;30.50;40.00;;;;;;5097537;28;1202;-38
2022/06/18 09:36:07;;;;;;;;;;;30.50;40.00;;;;;;5097562;28;1960;-38
2022/06/18 09:38:36;;;;;;;;;;;30.50;40.00;;;;;;5097467;28;1012;-39
2022/06/18 09:41:05;;;;;;;;;;;30.50;39.90;;;;;;5097127;28;976;-38
2022/06/18 09:43:37;;;;;;;;;;;30.50;40.00;;;;;;5097369;28;1008;-40
2022/06/18 09:46:09;;;;;;;;;;;30.40;39.90;;;;;;5097842;28;1057;-38
2022/06/18 09:48:37;;;;;;;;;;;30.50;39.90;;;;;;5097960;28;956;-39
2022/06/18 09:51:05;;;;;;;;;;;30.50;39.80;;;;;;5098055;28;1021;-38
2022/06/18 09:53:35;;;;;;;;;;;30.50;39.80;;;;;;5097735;28;1003;-38
2022/06/18 09:56:03;;;;;;;;;;;30.50;39.80;;;;;;5097237;28;1917;-38
2022/06/18 09:58:31;;;;;;;;;;;30.50;39.80;;;;;;5096745;28;846;-38
2022/06/18 10:00:59;;;;;;;;;;;30.50;39.80;;;;;;5096493;28;1006;-39
2022/06/18 10:09:02;;;;;;;;;;;30.50;40.00;;;;;;5096780;28;611;-38
2022/06/18 10:11:29;;;;;;;;;;;30.50;40.00;;;;;;5097153;28;1139;-37
2022/06/18 10:13:58;;;;;;;;;;;30.50;39.90;;;;;;5094809;28;976;-37
2022/06/18 10:16:34;;;;;;;;;;;30.50;39.80;;;;;;5097203;28;1976;-37
2022/06/18 10:19:06;;;;;;;;;;;30.60;39.90;;;;;;5098426;28;944;-37
2022/06/18 10:21:39;;;;;;;;;;;30.60;39.80;;;;;;5097467;28;1108;-37
2022/06/18 10:24:07;;;;;;;;;;;30.60;39.90;;;;;;5097658;28;947;-38
2022/06/18 10:26:37;;;;;;;;;;;30.60;39.80;;;;;;5098494;28;998;-38
2022/06/18 10:29:10;;;;;;;;;;;30.60;39.80;;;;;;5096465;28;1777;-37
2022/06/18 10:31:44;;;;;;;;;;;30.60;39.90;;;;;;5077444;28;1434;-39
2022/06/18 10:34:19;;;;;;;;;;;30.60;39.80;;;;;;5078789;28;1214;-42
2022/06/18 10:36:49;;;;;;;;;;;30.60;39.80;;;;;;5078101;28;1108;-37
2022/06/18 10:39:20;;;;;;;;;;;30.60;39.80;;;;;;5078180;28;1011;-40
2022/06/18 10:41:51;;;;;;;;;;;30.60;39.80;;;;;;5076740;28;1006;-38
2022/06/18 10:44:22;;;;;;;;;;;30.60;39.80;;;;;;5078273;28;912;-39
2022/06/18 10:46:59;;;;;;;;;;;30.60;39.80;;;;;;5077304;28;940;-37
2022/06/18 10:49:28;;;;;;;;;;;30.60;40.90;;;;;;5077939;28;999;-37
2022/06/18 10:51:54;;;;;;;;;;;30.70;39.80;;;;;;5077881;28;905;-37
2022/06/18 10:54:28;;;;;;;;;;;30.60;39.70;;;;;;5077399;28;983;-41
2022/06/18 10:56:57;;;;;;;;;;;30.60;39.70;;;;;;5075264;28;1121;-42
2022/06/18 10:59:31;;;;;;;;;;;30.60;39.70;;;;;;5076436;28;905;-44
2022/06/18 11:02:02;;;;;;;;;;;30.70;39.80;;;;;;5077008;28;940;-44
2022/06/18 11:04:31;;;;;;;;;;;30.70;39.70;;;;;;5075937;28;1878;-43
2022/06/18 11:06:59;;;;;;;;;;;30.70;39.70;;;;;;5074966;28;996;-44
2022/06/18 11:09:28;;;;;;;;;;;30.70;39.70;;;;;;5075596;28;981;-43
2022/06/18 11:11:56;;;;;;;;;;;30.70;39.70;;;;;;5076449;28;980;-44
2022/06/18 11:14:23;;;;;;;;;;;30.70;39.70;;;;;;5075605;28;976;-42
2022/06/18 11:16:51;;;;;;;;;;;30.70;39.70;;;;;;5075859;28;1906;-43
2022/06/18 11:19:20;;;;;;;;;;;30.60;39.70;;;;;;5075763;28;932;-43
2022/06/18 11:21:48;;;;;;;;;;;30.70;39.70;;;;;;5075315;28;1014;-44
2022/06/18 11:24:22;;;;;;;;;;;30.70;39.80;;;;;;5075083;28;1026;-42
2022/06/18 11:26:52;;;;;;;;;;;30.70;39.80;;;;;;5075873;28;1434;-43
2022/06/18 11:29:22;;;;;;;;;;;30.70;39.70;;;;;;5076055;28;977;-44
2022/06/18 11:31:53;;;;;;;;;;;30.70;39.70;;;;;;5075870;28;1148;-43
2022/06/18 11:34:22;;;;;;;;;;;30.70;39.70;;;;;;5074874;28;956;-42
2022/06/18 11:36:51;;;;;;;;;;;30.70;39.70;;;;;;5074499;28;1986;-44
2022/06/18 11:39:24;;;;;;;;;;;30.70;39.70;;;;;;5075145;28;993;-44
2022/06/18 11:41:51;;;;;;;;;;;30.70;39.70;;;;;;5075022;28;1051;-45
2022/06/18 11:44:21;;;;;;;;;;;30.70;39.70;;;;;;5074439;28;1077;-45
2022/06/18 11:46:51;;;;;;;;;;;30.70;39.70;;;;;;5074751;28;1044;-45
2022/06/18 11:49:21;;;;;;;;;;;30.80;39.80;;;;;;5074789;28;1000;-45
2022/06/18 11:51:52;;;;;;;;;;;30.80;39.70;;;;;;5074366;28;1014;-43
2022/06/18 11:54:23;;;;;;;;;;;30.80;39.70;;;;;;5074349;28;1010;-45
2022/06/18 11:56:54;;;;;;;;;;;30.80;39.80;;;;;;5074760;28;1910;-44
2022/06/18 11:59:23;;;;;;;;;;;30.80;39.70;;;;;;5074573;28;869;-44
2022/06/18 12:01:52;;;;;;;;;;;30.80;39.70;;;;;;5074335;28;1016;-45
2022/06/18 12:04:22;;;;;;;;;;;30.70;39.70;;;;;;5074771;28;967;-44
2022/06/18 12:06:52;;;;;;;;;;;30.70;39.70;;;;;;5074668;28;1044;-45
2022/06/18 12:09:21;;;;;;;;;;;30.70;39.70;;;;;;5074276;28;969;-44
2022/06/18 12:11:54;;;;;;;;;;;30.80;39.80;;;;;;5073059;28;991;-45
2022/06/18 12:14:32;;;;;;;;;;;30.80;39.80;;;;;;5072202;28;1020;-45
2022/06/18 12:17:03;;;;;;;;;;;30.80;39.70;;;;;;5073050;28;1914;-43
2022/06/18 12:19:32;;;;;;;;;;;30.80;39.70;;;;;;5073263;28;983;-43
2022/06/18 12:22:01;;;;;;;;;;;30.80;39.70;;;;;;5074239;28;967;-43
2022/06/18 12:24:32;;;;;;;;;;;30.80;39.70;;;;;;5073278;28;989;-43
2022/06/18 12:27:02;;;;;;;;;;;30.80;39.70;;;;;;5073492;28;932;-43
2022/06/18 12:29:34;;;;;;;;;;;30.80;39.70;;;;;;5073987;28;1177;-41
2022/06/18 12:32:04;;;;;;;;;;;30.80;39.80;;;;;;5073581;28;1461;-44
2022/06/18 12:34:37;;;;;;;;;;;30.80;39.80;;;;;;5073494;28;959;-43
2022/06/18 12:37:11;;;;;;;;;;;30.80;39.80;;;;;;5074512;28;1902;-42
2022/06/18 12:39:44;;;;;;;;;;;30.80;39.80;;;;;;5073950;28;1000;-44
2022/06/18 12:42:14;;;;;;;;;;;30.80;39.80;;;;;;5073725;28;892;-42
2022/06/18 12:44:42;;;;;;;;;;;30.80;39.80;;;;;;5072936;28;1035;-41
2022/06/18 12:47:14;;;;;;;;;;;30.80;39.70;;;;;;5073969;28;1914;-43
2022/06/18 12:49:44;;;;;;;;;;;30.80;39.70;;;;;;5073131;28;985;-44
2022/06/18 12:52:15;;;;;;;;;;;30.80;39.80;;;;;;5073280;28;1063;-43
2022/06/18 12:54:53;;;;;;;;;;;30.80;39.80;;;;;;5072572;28;971;-42
2022/06/18 12:57:23;;;;;;;;;;;30.80;39.80;;;;;;5073344;28;1906;-40
2022/06/18 12:59:54;;;;;;;;;;;30.80;39.80;;;;;;5073112;28;949;-42
2022/06/18 13:02:25;;;;;;;;;;;30.80;39.80;;;;;;5073337;28;932;-42
2022/06/18 13:05:10;;;;;;;;;;;30.80;39.80;;;;;;5073675;28;1035;-41
2022/06/18 13:07:41;;;;;;;;;;;30.80;39.90;;;;;;5074248;28;1593;-43
2022/06/18 13:10:12;;;;;;;;;;;30.80;39.80;;;;;;5073977;28;1024;-44
2022/06/18 13:12:51;;;;;;;;;;;30.80;39.90;;;;;;5072420;28;992;-41
2022/06/18 13:15:27;;;;;;;;;;;30.80;39.90;;;;;;5072462;28;1906;-44
2022/06/18 13:17:56;;;;;;;;;;;30.80;39.90;;;;;;5074031;28;1009;-43
2022/06/18 13:20:25;;;;;;;;;;;30.80;39.80;;;;;;5074509;28;1013;-44
2022/06/18 13:22:52;;;;;;;;;;;30.90;39.90;;;;;;5075502;28;1012;-43
2022/06/18 13:28:12;;;;;;;;;;;30.80;39.90;;;;;;5074834;28;597;-45
2022/06/18 13:30:49;;;;;;;;;;;30.90;39.90;;;;;;5075721;28;1041;-44
2022/06/18 13:33:18;;;;;;;;;;;30.90;40.10;;;;;;5076112;28;1148;-45
2022/06/18 13:35:47;;;;;;;;;;;30.90;39.80;;;;;;5075941;28;1965;-45
2022/06/18 13:38:18;;;;;;;;;;;30.90;39.80;;;;;;5075586;28;959;-45
2022/06/18 13:40:51;;;;;;;;;;;30.90;39.90;;;;;;5074582;28;932;-44
2022/06/18 13:43:23;;;;;;;;;;;30.90;39.80;;;;;;5075255;28;932;-44
2022/06/18 13:45:52;;;;;;;;;;;31.00;39.80;;;;;;5074777;28;1016;-43
2022/06/18 13:48:26;;;;;;;;;;;31.00;39.80;;;;;;5073672;28;933;-44
2022/06/18 13:50:54;;;;;;;;;;;31.00;39.70;;;;;;5073968;28;1013;-45
2022/06/18 13:53:29;;;;;;;;;;;31.00;39.80;;;;;;5074262;28;924;-45
2022/06/18 13:55:57;;;;;;;;;;;31.00;39.60;;;;;;5073200;28;1901;-44
2022/06/18 13:58:24;;;;;;;;;;;31.00;39.70;;;;;;5071529;28;1000;-45
2022/06/18 14:00:51;;;;;;;;;;;31.00;39.60;;;;;;5071954;28;974;-44
2022/06/18 14:03:21;;;;;;;;;;;31.10;39.70;;;;;;5073008;28;948;-45
2022/06/18 14:05:50;;;;;;;;;;;31.10;39.70;;;;;;5076080;28;1002;-45
2022/06/18 14:08:21;;;;;;;;;;;31.10;39.70;;;;;;5076906;28;1011;-43
2022/06/18 14:10:48;;;;;;;;;;;31.10;39.70;;;;;;5077563;28;988;-46
2022/06/18 14:13:21;;;;;;;;;;;31.10;39.60;;;;;;5075689;28;940;-45
2022/06/18 14:16:01;;;;;;;;;;;31.10;39.60;;;;;;5076854;28;1976;-45
2022/06/18 14:18:29;;;;;;;;;;;31.10;39.60;;;;;;5074947;28;941;-46
2022/06/18 14:20:57;;;;;;;;;;;31.10;39.50;;;;;;5075248;28;991;-45
2022/06/18 14:23:28;;;;;;;;;;;31.20;39.60;;;;;;5075964;28;932;-45
2022/06/18 14:26:01;;;;;;;;;;;31.20;39.60;;;;;;5076339;28;963;-45
2022/06/18 14:28:31;;;;;;;;;;;31.20;39.50;;;;;;5076634;28;1030;-45
2022/06/18 14:31:04;;;;;;;;;;;31.20;39.40;;;;;;5075697;28;1322;-45
2022/06/18 14:33:34;;;;;;;;;;;31.20;39.50;;;;;;5076522;28;1242;-45
2022/06/18 14:36:06;;;;;;;;;;;31.20;39.50;;;;;;5076718;28;1878;-46
2022/06/18 14:38:34;;;;;;;;;;;31.30;39.50;;;;;;5076135;28;917;-45
2022/06/18 14:43:57;;;;;;;;;;;31.30;39.40;;;;;;5075223;28;602;-44
2022/06/18 14:46:28;;;;;;;;;;;31.30;39.40;;;;;;5076532;28;991;-45
2022/06/18 14:49:03;;;;;;;;;;;31.30;39.30;;;;;;5076441;28;1005;-45
2022/06/18 14:51:45;;;;;;;;;;;31.40;39.40;;;;;;5076072;28;920;-45
2022/06/18 14:54:26;;;;;;;;;;;31.40;39.40;;;;;;5076915;28;988;-43
2022/06/18 14:57:11;;;;;;;;;;;31.40;39.40;;;;;;5075111;28;1989;-45
2022/06/18 14:59:59;;;;;;;;;;;31.40;39.40;;;;;;5075527;28;1032;-45
2022/06/18 15:02:30;;;;;;;;;;;31.40;39.40;;;;;;5068775;28;1538;-44
2022/06/18 15:04:58;;;;;;;;;;;31.40;39.40;;;;;;5075787;28;1010;-45
2022/06/18 15:07:29;;;;;;;;;;;31.40;40.50;;;;;;5076937;28;913;-45
2022/06/18 15:09:56;;;;;;;;;;;31.40;39.40;;;;;;5075740;28;966;-45